Terminal Aerodrome Forecast
Issued by NWS

Home | Current Version | Previous Version | Text Only | Print | Product List | Glossary On
Versions: 1 2 3 4 5 6 7 8 9 10 11 12 13
000
FTUS46 KPDT 010500
TAFDLS
TAF
KDLS 010528Z 0106/0206 31014G20KT P6SM BKN150
     FM011200 31007KT P6SM OVC150
     FM012100 32014G23KT P6SM SCT150 BKN200
     FM020500 32009KT P6SM SCT150=

USA.gov is the U.S. government's official web portal to all federal, state and local government web resources and services.